Richmond, Virginia
Current Conditions -  °F | °C
As of 11:54 AM on Saturday 20 Dec 2014 (Local Time) from KRIC Reporting Station
Overcast Overcast  
Wind Chill: 33°   Ceiling: 9500
Heat Index: 37°   Visibility: 10mi
Dew Point: 21°   Wind: 5mph
Humidity: 52%   Direction: 50°NE
Pressure: 30.3"   Gusts: NA
Location:  37.54°N, 77.43°W
Report Text: KRIC 201654Z 05004KT 10SM BKN095 OVC120 03/M06 A3030 RMK AO2 SLP269 T00281061
Loading
Personal Weather Stations






























Interactive Weather Map New forecast layout! Learn more

10-Day Weather Forecast

Advertisements
Track Severe Weather on mobile